Alief, Texas
Current Conditions -  °F | °C
As of 5:53 PM on Friday 21 Nov 2014 (Local Time) from KSGR Reporting Station
Overcast Overcast  
Wind Chill: 19°   Ceiling: 4100
Heat Index: 19°   Visibility: 10mi
Dew Point: 18°   Wind: 7mph
Humidity: 90%   Direction: 110°ESE
Pressure: 30.1"   Gusts: NA
Location:  29.71°N, 95.6°W
Report Text: KSGR 212353Z AUTO 11006KT 10SM FEW031 BKN041 OVC055 19/18 A3010 RMK AO2 SLP193 60016 T01940178 10211 20194 53007
Loading
Personal Weather Stations






























Interactive Weather Map New forecast layout! Learn more

10-Day Weather Forecast

Advertisements
Track Severe Weather on mobile